Powell River, British Columbia

Past 24 Hour Conditions

This table is a summary of hourly weather conditions for the past 24 hours. This summary includes the following parameters: temperature, humidity, dew point, wind speed and direction, air pressure, visibility and/or wind chill and humidex.
Date / Time
(PDT)
Conditions Temp (°F) Humidity (%) Dew Point (°F) Wind (mph) Pressure (inches) Visibility (miles)
01 September 2014
16:00 N/A 64 67 53 N/A 30.0 N/A
15:00 N/A 65 68 54 N/A 30.0 N/A
14:00 N/A 65 67 54 N/A 30.1 N/A
13:00 N/A 66 65 54 N/A 30.0 N/A
12:00 N/A 64 69 53 N/A 30.1 N/A
11:00 N/A 63 73 54 N/A 30.1 N/A
10:00 N/A 62 75 54 N/A 30.1 N/A
9:00 N/A 61 76 53 N/A 30.0 N/A
8:00 N/A 61 78 54 N/A 30.0 N/A
7:00 N/A 60   81 54 N/A 30.0 N/A
6:00 N/A 60   80 54 N/A 30.0 N/A
5:00 N/A 61 80 55 N/A 30.0 N/A
4:00 N/A 60   81 55 N/A 30.0 N/A
3:00 N/A 60   79 54 N/A 30.0 N/A
2:00 N/A 61 77 54 N/A 30.0 N/A
1:00 N/A 60   81 54 N/A 30.0 N/A
00:00 N/A 61 79 55 N/A 30.0 N/A
31 August 2014
23:00 N/A 61 77 54 N/A 30.0 N/A
22:00 N/A 61 76 54 N/A 30.0 N/A
21:00 N/A 62 73 53 N/A 30.0 N/A
20:00 N/A 62 74 54 N/A 30.0 N/A
19:00 N/A 63 72 54 N/A 30.0 N/A
18:00 N/A 64 67 52 N/A 30.0 N/A
17:00 N/A 65 67 54 N/A 30.0 N/A
16:00 N/A 67   57 51 N/A 30.0 N/A
N/A
Not available
 ↑ 
Highest temperature
 ↓ 
Lowest temperature

If you require additional historical weather information, please visit Climate Data Online.